Hafford, Canada
Current Conditions -  °F | °C
As of 11:00 AM on Friday 19 Dec 2014 (Local Time) from CYQW Reporting Station
Moderate Fog Moderate Fog  
Wind Chill:   Ceiling: 200
Heat Index: 14°   Visibility: 0.25mi
Dew Point: 12°   Wind: 5mph
Humidity: 93%   Direction: 100°E
Pressure: 29.92"   Gusts: NA
Location:  52.72°N, 107.35°W
Report Text: CYQW 191700Z AUTO 10004KT 080V170 1/4SM FZFG VV002 M10/M11 A2992 RMK ICG SLP173
Loading
Personal Weather Stations






























Interactive Weather Map New forecast layout! Learn more

10-Day Weather Forecast

Advertisements
Track Severe Weather on mobile